• Join FlightAware (Why Join?)
  • Login
  • US Flag 
12:02AM EDT


 

Airport Tracker/Info


-or-


 

Live Flight TrackerFlight Track Log ✈ DAL1562 ✈ 09-Apr-2013 ✈ KPHL - KDTW

Flight Track Log - Related Links

Times and Time Zones

All times are in EDT time to prevent confusion due to time zone crossing. See the DAL1562 flight status page for this flight to view local times or setup timezone preferences in your user account.

Time Position Orientation Groundspeed Altitude Reporting Facility
EDT Latitude Longitude Course Direction KTS MPH feet Rate Location/Type
04:43PM 39.8667 -75.2667 245° Southwest 163 188 700  Level Philadelphia TRACON
04:43PM 39.8583 -75.2894 245° Southwest 155 178 1,400 1,620 Climbing FAA TRACON SMA TRACON (SMA)
04:43PM 39.8533 -75.3114 253° West 201 231 1,700 1,920 Climbing FAA TRACON SMA TRACON (SMA)
04:44PM 39.8489 -75.3369 257° West 234 269 2,700 3,000 Climbing FAA TRACON SMA TRACON (SMA)
04:44PM 39.8428 -75.3675 255° West 251 289 3,700 3,420 Climbing FAA TRACON SMA TRACON (SMA)
04:44PM 39.8444 -75.3972 274° West 250 288 5,000 3,600 Climbing FAA TRACON SMA TRACON (SMA)
04:45PM 39.8478 -75.4244 279° West 250 288 6,100 3,600 Climbing FAA TRACON SMA TRACON (SMA)
04:45PM 39.8508 -75.4603 276° West 259 298 7,400 3,420 Climbing FAA TRACON SMA TRACON (SMA)
04:45PM 39.8519 -75.4886 273° West 262 302 8,400 2,820 Climbing FAA TRACON SMA TRACON (SMA)
04:46PM 39.8536 -75.5189 274° West 262 302 9,300 2,220 Climbing FAA TRACON SMA TRACON (SMA)
04:46PM 39.8558 -75.5536 275° West 259 298 9,900 1,020 Climbing FAA TRACON SMA TRACON (SMA)
04:46PM 39.8583 -75.5850 276° West 275 316 10,000 120 Climbing FAA TRACON SMA TRACON (SMA)
04:47PM 39.8611 -75.6206 276° West 320 368 10,000 420 Level FAA TRACON SMA TRACON (SMA)
04:47PM 39.8656 -75.6664 277° West 337 388 10,300 1,500 Climbing FAA TRACON SMA TRACON (SMA)
04:47PM 39.8692 -75.7050 277° West 346 398 11,000 2,400 Climbing FAA TRACON SMA TRACON (SMA)
04:48PM 39.8725 -75.7447 276° West 353 406 11,900 3,120 Climbing FAA TRACON SMA TRACON (SMA)
04:48PM 39.8764 -75.7936 276° West 355 409 13,100 2,700 Climbing FAA TRACON SMA TRACON (SMA)
04:48PM 39.8794 -75.8331 276° West 357 411 13,700 2,100 Climbing FAA TRACON SMA TRACON (SMA)
04:49PM 39.8828 -75.8744 276° West 363 418 14,500 2,520 Climbing FAA TRACON SMA TRACON (SMA)
04:49PM 39.8886 -75.9258 278° West 368 423 15,400 2,400 Climbing FAA TRACON SMA TRACON (SMA)
04:49PM 39.8900 -75.9678 272° West 376 433 16,100 1,920 Climbing FAA TRACON SMA TRACON (SMA)
04:50PM 39.8922 -76.0069 274° West 379 436 16,700 2,100 Climbing FAA TRACON SMA TRACON (SMA)
04:50PM 39.8953 -76.0639 274° West 387 445 17,500 2,100 Climbing FAA TRACON SMA TRACON (SMA)
04:50PM 39.8978 -76.1078 274° West 391 450 18,100 900 Climbing FAA TRACON SMA TRACON (SMA)
04:51PM 39.8978 -76.1078 143° Southeast 391 450 18,100 1,800 Level FAA TRACON SMA TRACON (SMA)
04:53PM 39.9225 -76.4933 275° West 412 474 23,100 1,860 Climbing New York Center
04:54PM 39.9381 -76.6461 278° West 412 474 24,600 1,620 Climbing New York Center
04:55PM 39.9514 -76.7961 277° West 412 474 26,400 2,040 Climbing New York Center
04:56PM 39.9667 -76.9439 278° West 418 481 28,700 1,140 Climbing New York Center
05:00PM 40.0133 -77.5172 276° West 410 472 32,000 660 Climbing Cleveland Center
05:01PM 40.0275 -77.6631 277° West 416 479 32,000  Level Cleveland Center
05:02PM 40.0375 -77.8036 275° West 416 479 32,000  Level Cleveland Center
05:03PM 40.0511 -77.9467 277° West 416 479 32,000  Level Cleveland Center
05:04PM 40.0628 -78.0875 276° West 416 479 32,000  Level Cleveland Center
05:05PM 40.0742 -78.2281 276° West 410 472 32,000 -300 Level Cleveland Center
05:06PM 40.0853 -78.3714 276° West 405 466 31,500 -720 Descending Cleveland Center
05:07PM 40.0964 -78.5122 276° West 405 466 30,600 -780 Descending Cleveland Center
05:08PM 40.1047 -78.6394 275° West 405 466 30,000 -300 Descending Cleveland Center
05:09PM 40.1175 -78.7803 277° West 405 466 30,000  Level Cleveland Center
05:10PM 40.1261 -78.9269 274° West 405 466 30,000  Level Cleveland Center
05:11PM 40.1364 -79.0678 275° West 405 466 30,000  Level Cleveland Center
05:12PM 40.1547 -79.2058 280° West 405 466 30,000  Level Cleveland Center
05:13PM 40.2044 -79.3489 295° West 394 453 30,000  Level Cleveland Center
05:14PM 40.2517 -79.4814 295° West 399 459 30,000  Level Cleveland Center
05:15PM 40.2964 -79.6114 294° West 399 459 30,000  Level Cleveland Center
05:16PM 40.3392 -79.7414 293° West 399 459 30,000  Level Cleveland Center
05:17PM 40.3839 -79.8689 295° West 394 453 30,000  Level Cleveland Center
05:18PM 40.4283 -79.9994 294° West 394 453 30,000  Level Cleveland Center
05:19PM 40.4664 -80.1192 293° West 394 453 30,000  Level Cleveland Center
05:20PM 40.5086 -80.2500 293° West 394 453 30,000  Level Cleveland Center
05:21PM 40.5547 -80.3781 295° West 394 453 30,000  Level Cleveland Center
05:22PM 40.6028 -80.5231 294° West 394 453 30,000  Level Cleveland Center
05:23PM 40.6425 -80.6433 294° West 399 459 30,000  Level Cleveland Center
05:24PM 40.6903 -80.7692 297° West 394 453 30,000  Level Cleveland Center
05:25PM 40.7506 -80.8900 303° West 394 453 30,000  Level Cleveland Center
05:26PM 40.8106 -81.0139 303° West 394 453 30,000  Level Cleveland Center
05:27PM 40.8744 -81.1514 302° West 394 453 30,000  Level Cleveland Center
05:28PM 40.9344 -81.2731 303° West 399 459 30,000  Level Cleveland Center
05:29PM 40.9939 -81.3975 302° West 405 466 30,000  Level Cleveland Center
05:30PM 41.0514 -81.5192 302° West 405 466 30,000  Level Cleveland Center
05:31PM 41.1108 -81.6414 303° West 400 460 30,000 -60 Level Cleveland Center
05:32PM 41.1661 -81.7497 304° West 400 460 29,900 -660 Descending Cleveland Center
05:33PM 41.2253 -81.8725 303° West 395 455 28,700 -1,380 Descending Cleveland Center
05:34PM 41.2842 -81.9978 302° West 395 455 27,200 -1,440 Descending Cleveland Center
05:35PM 41.3428 -82.1319 300° West 401 461 25,900 -1,920 Descending Cleveland Center
05:36PM 41.4181 -82.2639 307° West 408 470 23,400 -2,640 Descending Cleveland Center
05:37PM 41.4853 -82.3764 309° West 403 464 20,700 -2,880 Descending Cleveland Center
05:38PM 41.5361 -82.4556 311° West 388 447 18,600 -2,700 Descending Cleveland Center
05:38PM 41.5503 -82.4839 304° West 384 442 18,000 -2,580 Descending Cleveland Center
05:39PM 41.6131 -82.5883 309° West 371 427 15,300 -2,640 Descending Cleveland Center
05:40PM 41.6717 -82.6875 308° West 359 413 12,800 -1,680 Descending Cleveland Center
05:41PM 41.7242 -82.7783 308° West 334 384 12,000 -420 Descending Cleveland Center
05:42PM 41.7792 -82.8469 317° Northwest 295 339 12,000 -720 Level Cleveland Center
05:43PM 41.8428 -82.8994 328° Northwest 273 314 10,600 -1,500 Descending Cleveland Center
05:44PM 41.8956 -82.9656 317° Northwest 266 306 9,000 -1,740 Descending Cleveland Center
05:45PM 41.9103 -83.0581 282° West 243 280 7,200 -1,500 Descending Cleveland Center
05:46PM 41.9147 -83.1475 274° West 243 280 6,000 -600 Descending Cleveland Center
05:47PM 41.9128 -83.2283 268° West 243 280 6,000 -420 Level Cleveland Center
05:48PM 41.9161 -83.3458 272° West 238 274 5,100 -840 Descending Cleveland Center
05:49PM 41.9478 -83.4197 300° West 215 247 4,200 -540 Descending Cleveland Center
05:50PM 41.9925 -83.4608 326° Northwest 214 246 4,100 -120 Descending Cleveland Center
05:51PM 42.0514 -83.4494 North 210 242 4,000 -480 Descending Cleveland Center
05:52PM 42.1064 -83.4183 23° Northeast 215 247 3,200 -1,080 Descending Cleveland Center
05:53PM 42.1572 -83.3814 28° Northeast 164 189 1,700 -1,140 Descending Cleveland Center
05:54PM 42.1892 -83.3578 29° Northeast 135 155 900 -900 Descending Cleveland Center
05:56PM 42.2000 -83.3500 323° Northwest  Level FlightAware Approximate